sensor_id;sensor_type;location;lat;lon;timestamp;pressure;altitude;pressure_sealevel;temperature;humidity
62122;BME280;48108;47.532;19.084;2023-12-04T05:01:18;101337.94;;;-5.53;100.00
62122;BME280;48108;47.532;19.084;2023-12-04T05:04:21;101345.81;;;-5.53;100.00
62122;BME280;48108;47.532;19.084;2023-12-04T05:07:24;101339.69;;;-5.53;100.00
62122;BME280;48108;47.532;19.084;2023-12-04T05:10:27;101346.56;;;-5.49;100.00
62122;BME280;48108;47.532;19.084;2023-12-04T05:13:30;101349.28;;;-5.52;100.00
62122;BME280;48108;47.532;19.084;2023-12-04T05:16:33;101348.38;;;-5.51;100.00
62122;BME280;48108;47.532;19.084;2023-12-04T05:19:36;101355.50;;;-5.55;100.00
62122;BME280;48108;47.532;19.084;2023-12-04T05:22:40;101356.19;;;-5.50;100.00
62122;BME280;48108;47.532;19.084;2023-12-04T05:25:42;101354.53;;;-5.52;100.00
62122;BME280;48108;47.532;19.084;2023-12-04T05:28:52;101356.47;;;-5.59;100.00
62122;BME280;48108;47.532;19.084;2023-12-04T05:31:55;101355.87;;;-5.40;100.00
62122;BME280;48108;47.532;19.084;2023-12-04T05:35:00;101349.19;;;-5.49;100.00
62122;BME280;48108;47.532;19.084;2023-12-04T05:38:03;101349.53;;;-5.60;100.00
62122;BME280;48108;47.532;19.084;2023-12-04T05:41:06;101357.50;;;-5.63;100.00
62122;BME280;48108;47.532;19.084;2023-12-04T05:44:09;101351.22;;;-5.59;100.00
62122;BME280;48108;47.532;19.084;2023-12-04T05:47:12;101352.88;;;-5.81;100.00
62122;BME280;48108;47.532;19.084;2023-12-04T05:50:15;101348.47;;;-5.81;100.00
62122;BME280;48108;47.532;19.084;2023-12-04T05:53:19;101353.66;;;-5.79;100.00
62122;BME280;48108;47.532;19.084;2023-12-04T05:56:21;101361.78;;;-5.87;100.00
62122;BME280;48108;47.532;19.084;2023-12-04T05:59:24;101352.91;;;-5.83;100.00
62122;BME280;48108;47.532;19.084;2023-12-04T06:02:28;101352.81;;;-5.80;100.00
62122;BME280;48108;47.532;19.084;2023-12-04T06:05:33;101361.53;;;-5.79;100.00
62122;BME280;48108;47.532;19.084;2023-12-04T06:08:36;101364.84;;;-5.74;100.00
62122;BME280;48108;47.532;19.084;2023-12-04T06:11:39;101366.63;;;-5.75;100.00
62122;BME280;48108;47.532;19.084;2023-12-04T06:14:42;101369.34;;;-5.78;100.00
62122;BME280;48108;47.532;19.084;2023-12-04T06:17:45;101359.81;;;-5.80;100.00
62122;BME280;48108;47.532;19.084;2023-12-04T06:20:48;101360.53;;;-5.75;100.00
62122;BME280;48108;47.532;19.084;2023-12-04T06:23:51;101369.25;;;-5.75;100.00
62122;BME280;48108;47.532;19.084;2023-12-04T06:26:55;101363.09;;;-5.74;100.00
62122;BME280;48108;47.532;19.084;2023-12-04T06:29:58;101359.63;;;-5.74;100.00
62122;BME280;48108;47.532;19.084;2023-12-04T06:33:01;101364.00;;;-5.75;100.00
62122;BME280;48108;47.532;19.084;2023-12-04T06:36:06;101362.00;;;-5.66;100.00
62122;BME280;48108;47.532;19.084;2023-12-04T06:39:11;101374.75;;;-5.56;100.00
62122;BME280;48108;47.532;19.084;2023-12-04T06:42:15;101379.00;;;-5.27;100.00
62122;BME280;48108;47.532;19.084;2023-12-04T06:45:18;101387.91;;;-5.31;100.00
62122;BME280;48108;47.532;19.084;2023-12-04T06:48:22;101385.28;;;-5.31;100.00
62122;BME280;48108;47.532;19.084;2023-12-04T06:51:25;101385.28;;;-5.31;100.00
62122;BME280;48108;47.532;19.084;2023-12-04T06:54:28;101392.09;;;-5.25;100.00
62122;BME280;48108;47.532;19.084;2023-12-04T06:57:31;101383.88;;;-5.14;100.00
62122;BME280;48108;47.532;19.084;2023-12-04T07:00:35;101385.25;;;-5.04;100.00
62122;BME280;48108;47.532;19.084;2023-12-04T07:03:38;101383.22;;;-4.96;100.00
62122;BME280;48108;47.532;19.084;2023-12-04T07:06:41;101381.28;;;-4.91;100.00
62122;BME280;48108;47.532;19.084;2023-12-04T07:09:45;101390.09;;;-4.68;100.00
62122;BME280;48108;47.532;19.084;2023-12-04T07:12:48;101400.97;;;-4.54;100.00
62122;BME280;48108;47.532;19.084;2023-12-04T07:15:52;101397.94;;;-4.43;100.00
62122;BME280;48108;47.532;19.084;2023-12-04T07:18:55;101401.38;;;-4.18;100.00
62122;BME280;48108;47.532;19.084;2023-12-04T07:21:58;101401.84;;;-4.06;100.00
62122;BME280;48108;47.532;19.084;2023-12-04T07:25:02;101401.22;;;-3.91;100.00
62122;BME280;48108;47.532;19.084;2023-12-04T07:28:05;101387.59;;;-3.79;100.00
62122;BME280;48108;47.532;19.084;2023-12-04T07:31:08;101390.44;;;-3.63;100.00
62122;BME280;48108;47.532;19.084;2023-12-04T07:34:12;101389.97;;;-3.51;100.00
62122;BME280;48108;47.532;19.084;2023-12-04T07:37:15;101392.75;;;-3.33;100.00
62122;BME280;48108;47.532;19.084;2023-12-04T07:40:19;101403.22;;;-3.32;100.00
62122;BME280;48108;47.532;19.084;2023-12-04T07:43:26;101402.94;;;-3.26;100.00
62122;BME280;48108;47.532;19.084;2023-12-04T07:46:30;101409.63;;;-3.17;100.00
62122;BME280;48108;47.532;19.084;2023-12-04T07:49:33;101409.34;;;-2.90;100.00
62122;BME280;48108;47.532;19.084;2023-12-04T07:52:36;101402.28;;;-2.69;100.00
62122;BME280;48108;47.532;19.084;2023-12-04T07:55:39;101399.03;;;-2.56;100.00
62122;BME280;48108;47.532;19.084;2023-12-04T07:58:42;101402.84;;;-2.42;100.00
62122;BME280;48108;47.532;19.084;2023-12-04T08:01:45;101407.66;;;-2.13;100.00
62122;BME280;48108;47.532;19.084;2023-12-04T08:04:48;101414.97;;;-2.00;100.00
62122;BME280;48108;47.532;19.084;2023-12-04T08:07:52;101406.47;;;-1.88;100.00
62122;BME280;48108;47.532;19.084;2023-12-04T08:10:55;101403.41;;;-1.79;100.00
62122;BME280;48108;47.532;19.084;2023-12-04T08:13:58;101407.03;;;-1.63;100.00
62122;BME280;48108;47.532;19.084;2023-12-04T08:17:01;101402.09;;;-1.51;100.00
62122;BME280;48108;47.532;19.084;2023-12-04T08:20:05;101394.91;;;-1.49;100.00
62122;BME280;48108;47.532;19.084;2023-12-04T08:23:10;101402.22;;;-1.54;100.00
62122;BME280;48108;47.532;19.084;2023-12-04T08:26:13;101406.50;;;-1.52;100.00
62122;BME280;48108;47.532;19.084;2023-12-04T08:29:23;101412.28;;;-1.26;100.00
62122;BME280;48108;47.532;19.084;2023-12-04T08:32:26;101402.50;;;-1.24;100.00
62122;BME280;48108;47.532;19.084;2023-12-04T08:35:33;101410.75;;;-1.13;100.00
62122;BME280;48108;47.532;19.084;2023-12-04T08:38:36;101404.28;;;-1.07;100.00
62122;BME280;48108;47.532;19.084;2023-12-04T08:41:39;101409.91;;;-0.96;100.00
62122;BME280;48108;47.532;19.084;2023-12-04T08:44:52;101408.00;;;-0.77;100.00
62122;BME280;48108;47.532;19.084;2023-12-04T08:47:56;101409.06;;;-0.63;100.00
62122;BME280;48108;47.532;19.084;2023-12-04T08:50:59;101403.97;;;-0.51;100.00
62122;BME280;48108;47.532;19.084;2023-12-04T08:54:02;101400.72;;;-0.56;100.00
62122;BME280;48108;47.532;19.084;2023-12-04T08:57:19;101406.87;;;-0.55;100.00
62122;BME280;48108;47.532;19.084;2023-12-04T09:00:23;101401.44;;;-0.52;100.00
62122;BME280;48108;47.532;19.084;2023-12-04T09:03:26;101404.03;;;-0.35;100.00
62122;BME280;48108;47.532;19.084;2023-12-04T09:06:34;101404.03;;;-0.35;100.00
62122;BME280;48108;47.532;19.084;2023-12-04T09:09:40;101399.44;;;-0.31;100.00
62122;BME280;48108;47.532;19.084;2023-12-04T09:12:43;101409.38;;;-0.36;100.00
62122;BME280;48108;47.532;19.084;2023-12-04T09:15:46;101408.75;;;-0.57;100.00
62122;BME280;48108;47.532;19.084;2023-12-04T09:18:50;101406.91;;;-0.39;100.00
62122;BME280;48108;47.532;19.084;2023-12-04T09:21:53;101409.69;;;-0.58;100.00
62122;BME280;48108;47.532;19.084;2023-12-04T09:25:10;101408.16;;;-0.80;100.00
62122;BME280;48108;47.532;19.084;2023-12-04T09:28:13;101409.25;;;-0.66;100.00
62122;BME280;48108;47.532;19.084;2023-12-04T09:31:16;101405.97;;;-0.38;100.00
62122;BME280;48108;47.532;19.084;2023-12-04T09:34:19;101402.84;;;-0.13;100.00
62122;BME280;48108;47.532;19.084;2023-12-04T09:37:23;101393.91;;;-0.11;100.00
62122;BME280;48108;47.532;19.084;2023-12-04T09:40:26;101394.16;;;0.01;100.00
62122;BME280;48108;47.532;19.084;2023-12-04T09:43:31;101390.75;;;-0.02;100.00
62122;BME280;48108;47.532;19.084;2023-12-04T09:46:35;101384.34;;;-0.13;100.00
62122;BME280;48108;47.532;19.084;2023-12-04T09:49:38;101377.41;;;-0.16;100.00
62122;BME280;48108;47.532;19.084;2023-12-04T09:52:42;101372.91;;;-0.14;100.00
62122;BME280;48108;47.532;19.084;2023-12-04T09:55:49;101366.41;;;-0.08;100.00
62122;BME280;48108;47.532;19.084;2023-12-04T09:58:58;101359.75;;;0.01;100.00
62122;BME280;48108;47.532;19.084;2023-12-04T10:02:01;101355.03;;;0.06;100.00
62122;BME280;48108;47.532;19.084;2023-12-04T10:05:05;101357.19;;;-0.01;100.00
62122;BME280;48108;47.532;19.084;2023-12-04T10:08:08;101363.59;;;-0.05;100.00
62122;BME280;48108;47.532;19.084;2023-12-04T10:11:14;101352.06;;;-0.04;100.00
62122;BME280;48108;47.532;19.084;2023-12-04T10:14:19;101338.56;;;0.01;100.00
62122;BME280;48108;47.532;19.084;2023-12-04T10:17:22;101337.03;;;-0.19;100.00
62122;BME280;48108;47.532;19.084;2023-12-04T10:20:25;101337.28;;;-0.24;100.00
62122;BME280;48108;47.532;19.084;2023-12-04T10:23:42;101324.50;;;0.00;100.00
62122;BME280;48108;47.532;19.084;2023-12-04T10:26:50;101323.78;;;0.12;100.00
62122;BME280;48108;47.532;19.084;2023-12-04T10:29:54;101320.00;;;0.16;100.00
62122;BME280;48108;47.532;19.084;2023-12-04T10:33:04;101316.34;;;0.19;100.00
62122;BME280;48108;47.532;19.084;2023-12-04T10:36:11;101313.59;;;0.20;100.00
62122;BME280;48108;47.532;19.084;2023-12-04T10:39:14;101303.28;;;0.16;100.00
62122;BME280;48108;47.532;19.084;2023-12-04T10:42:28;101306.41;;;0.22;100.00
62122;BME280;48108;47.532;19.084;2023-12-04T10:45:36;101295.47;;;0.29;100.00
62122;BME280;48108;47.532;19.084;2023-12-04T10:48:40;101293.81;;;0.42;100.00
62122;BME280;48108;47.532;19.084;2023-12-04T10:51:43;101291.44;;;0.37;100.00
62122;BME280;48108;47.532;19.084;2023-12-04T10:54:48;101282.09;;;0.46;100.00
62122;BME280;48108;47.532;19.084;2023-12-04T10:57:53;101278.91;;;0.70;100.00
62122;BME280;48108;47.532;19.084;2023-12-04T11:00:59;101279.69;;;0.72;100.00
62122;BME280;48108;47.532;19.084;2023-12-04T11:04:10;101277.91;;;0.86;100.00
62122;BME280;48108;47.532;19.084;2023-12-04T11:07:17;101283.12;;;1.02;100.00
62122;BME280;48108;47.532;19.084;2023-12-04T11:10:22;101267.31;;;1.01;100.00
62122;BME280;48108;47.532;19.084;2023-12-04T11:13:30;101263.91;;;0.99;100.00
62122;BME280;48108;47.532;19.084;2023-12-04T11:16:57;101264.28;;;1.07;100.00
62122;BME280;48108;47.532;19.084;2023-12-04T11:20:16;101260.09;;;1.31;100.00
62122;BME280;48108;47.532;19.084;2023-12-04T11:23:20;101260.03;;;1.60;99.53
62122;BME280;48108;47.532;19.084;2023-12-04T11:26:24;101255.75;;;1.72;98.15
62122;BME280;48108;47.532;19.084;2023-12-04T11:29:29;101251.59;;;1.95;95.09
62122;BME280;48108;47.532;19.084;2023-12-04T11:32:44;101245.25;;;2.50;95.22
62122;BME280;48108;47.532;19.084;2023-12-04T11:35:47;101239.66;;;2.93;91.25
62122;BME280;48108;47.532;19.084;2023-12-04T11:38:50;101235.72;;;2.99;87.57
62122;BME280;48108;47.532;19.084;2023-12-04T11:41:53;101231.25;;;3.36;88.00
62122;BME280;48108;47.532;19.084;2023-12-04T11:44:59;101227.78;;;3.23;87.15
62122;BME280;48108;47.532;19.084;2023-12-04T11:48:02;101223.00;;;3.15;88.33
62122;BME280;48108;47.532;19.084;2023-12-04T11:51:06;101209.50;;;3.55;84.75
62122;BME280;48108;47.532;19.084;2023-12-04T11:54:10;101208.44;;;3.57;85.44
62122;BME280;48108;47.532;19.084;2023-12-04T12:03:21;101200.22;;;4.77;79.91
62122;BME280;48108;47.532;19.084;2023-12-04T12:06:25;101196.84;;;5.53;76.96
62122;BME280;48108;47.532;19.084;2023-12-04T12:09:30;101197.47;;;5.56;74.05
62122;BME280;48108;47.532;19.084;2023-12-04T12:12:34;101194.25;;;6.90;66.23
62122;BME280;48108;47.532;19.084;2023-12-04T12:15:38;101177.84;;;7.64;59.62
62122;BME280;48108;47.532;19.084;2023-12-04T12:18:41;101177.13;;;7.52;58.36
62122;BME280;48108;47.532;19.084;2023-12-04T12:21:45;101174.00;;;7.37;57.42
62122;BME280;48108;47.532;19.084;2023-12-04T12:24:48;101157.94;;;7.95;53.93
62122;BME280;48108;47.532;19.084;2023-12-04T12:27:52;101161.66;;;8.80;51.16
62122;BME280;48108;47.532;19.084;2023-12-04T12:31:02;101143.38;;;8.47;51.79
62122;BME280;48108;47.532;19.084;2023-12-04T12:34:05;101145.16;;;10.02;47.14
62122;BME280;48108;47.532;19.084;2023-12-04T12:37:09;101128.66;;;10.41;44.81
62122;BME280;48108;47.532;19.084;2023-12-04T12:40:12;101117.63;;;11.21;41.16
62122;BME280;48108;47.532;19.084;2023-12-04T12:43:16;101126.47;;;10.62;41.80
62122;BME280;48108;47.532;19.084;2023-12-04T12:46:19;101118.53;;;9.73;43.71
62122;BME280;48108;47.532;19.084;2023-12-04T12:49:22;101117.66;;;9.19;45.09
62122;BME280;48108;47.532;19.084;2023-12-04T12:52:39;101112.84;;;8.57;46.29
62122;BME280;48108;47.532;19.084;2023-12-04T12:55:43;101119.97;;;8.10;48.07
62122;BME280;48108;47.532;19.084;2023-12-04T12:58:47;101123.84;;;6.37;52.39
62122;BME280;48108;47.532;19.084;2023-12-04T13:01:50;101116.94;;;5.29;57.12
62122;BME280;48108;47.532;19.084;2023-12-04T13:04:53;101112.34;;;3.96;62.36
62122;BME280;48108;47.532;19.084;2023-12-04T13:07:56;101122.63;;;2.93;67.07
62122;BME280;48108;47.532;19.084;2023-12-04T13:11:00;101114.41;;;2.46;71.72
62122;BME280;48108;47.532;19.084;2023-12-04T13:14:03;101112.16;;;2.02;75.81
62122;BME280;48108;47.532;19.084;2023-12-04T13:17:06;101114.22;;;1.84;77.23
62122;BME280;48108;47.532;19.084;2023-12-04T13:20:09;101118.50;;;1.47;81.53
62122;BME280;48108;47.532;19.084;2023-12-04T13:23:17;101110.91;;;1.28;82.82
62122;BME280;48108;47.532;19.084;2023-12-04T13:26:19;101103.69;;;1.30;84.61
62122;BME280;48108;47.532;19.084;2023-12-04T13:29:24;101112.09;;;1.09;87.60
62122;BME280;48108;47.532;19.084;2023-12-04T13:32:27;101109.75;;;0.90;89.35
62122;BME280;48108;47.532;19.084;2023-12-04T13:35:30;101108.41;;;1.12;90.58
62122;BME280;48108;47.532;19.084;2023-12-04T13:38:33;101107.87;;;0.93;88.02
62122;BME280;48108;47.532;19.084;2023-12-04T13:41:39;101096.00;;;0.71;92.30
62122;BME280;48108;47.532;19.084;2023-12-04T13:45:01;101094.13;;;0.59;92.99
62122;BME280;48108;47.532;19.084;2023-12-04T13:48:05;101098.72;;;0.55;94.63
62122;BME280;48108;47.532;19.084;2023-12-04T13:51:09;101082.56;;;0.60;95.51
62122;BME280;48108;47.532;19.084;2023-12-04T13:54:12;101090.72;;;0.42;95.76
62122;BME280;48108;47.532;19.084;2023-12-04T13:57:30;101091.09;;;0.36;100.00
62122;BME280;48108;47.532;19.084;2023-12-04T14:00:46;101084.84;;;0.52;98.48
62122;BME280;48108;47.532;19.084;2023-12-04T14:03:49;101096.28;;;0.38;100.00
62122;BME280;48108;47.532;19.084;2023-12-04T14:06:52;101089.84;;;0.42;99.73
62122;BME280;48108;47.532;19.084;2023-12-04T14:09:56;101080.09;;;0.28;99.24
62122;BME280;48108;47.532;19.084;2023-12-04T14:12:58;101078.31;;;0.29;100.00
62122;BME280;48108;47.532;19.084;2023-12-04T14:16:03;101090.81;;;0.27;100.00
62122;BME280;48108;47.532;19.084;2023-12-04T14:19:06;101089.25;;;0.08;100.00
62122;BME280;48108;47.532;19.084;2023-12-04T14:22:10;101095.59;;;0.06;100.00
62122;BME280;48108;47.532;19.084;2023-12-04T14:25:13;101084.81;;;0.09;100.00
62122;BME280;48108;47.532;19.084;2023-12-04T14:28:16;101078.66;;;-0.06;100.00
62122;BME280;48108;47.532;19.084;2023-12-04T14:31:30;101074.69;;;-0.13;100.00
62122;BME280;48108;47.532;19.084;2023-12-04T14:34:33;101067.50;;;-0.26;100.00
62122;BME280;48108;47.532;19.084;2023-12-04T14:37:37;101061.06;;;-0.21;100.00
62122;BME280;48108;47.532;19.084;2023-12-04T14:40:40;101064.06;;;-0.28;100.00
62122;BME280;48108;47.532;19.084;2023-12-04T14:43:43;101062.16;;;-0.40;100.00
62122;BME280;48108;47.532;19.084;2023-12-04T14:46:46;101051.41;;;-0.37;100.00
62122;BME280;48108;47.532;19.084;2023-12-04T14:49:49;101051.94;;;-0.46;100.00
62122;BME280;48108;47.532;19.084;2023-12-04T14:52:57;101049.38;;;-0.48;100.00
62122;BME280;48108;47.532;19.084;2023-12-04T14:56:01;101048.47;;;-0.47;100.00
62122;BME280;48108;47.532;19.084;2023-12-04T14:59:23;101050.50;;;-0.52;100.00
62122;BME280;48108;47.532;19.084;2023-12-04T15:02:46;101048.72;;;-0.51;100.00
62122;BME280;48108;47.532;19.084;2023-12-04T15:06:13;101042.88;;;-0.42;100.00
62122;BME280;48108;47.532;19.084;2023-12-04T15:09:16;101053.56;;;-0.43;100.00
62122;BME280;48108;47.532;19.084;2023-12-04T15:12:37;101053.38;;;-0.40;100.00
62122;BME280;48108;47.532;19.084;2023-12-04T15:15:59;101044.59;;;-0.41;100.00
62122;BME280;48108;47.532;19.084;2023-12-04T15:19:05;101051.28;;;-0.50;100.00
62122;BME280;48108;47.532;19.084;2023-12-04T15:22:07;101051.00;;;-0.45;100.00
62122;BME280;48108;47.532;19.084;2023-12-04T15:25:11;101041.56;;;-0.49;100.00
62122;BME280;48108;47.532;19.084;2023-12-04T15:28:14;101040.22;;;-0.42;100.00
62122;BME280;48108;47.532;19.084;2023-12-04T15:31:17;101024.84;;;-0.50;100.00
62122;BME280;48108;47.532;19.084;2023-12-04T15:34:20;101026.59;;;-0.50;100.00
62122;BME280;48108;47.532;19.084;2023-12-04T15:37:25;101027.97;;;-0.43;100.00
62122;BME280;48108;47.532;19.084;2023-12-04T15:40:28;101016.50;;;-0.58;100.00
62122;BME280;48108;47.532;19.084;2023-12-04T15:43:32;101023.59;;;-0.58;100.00
62122;BME280;48108;47.532;19.084;2023-12-04T15:46:35;101023.19;;;-0.66;100.00
62122;BME280;48108;47.532;19.084;2023-12-04T15:49:38;101016.87;;;-0.64;100.00
62122;BME280;48108;47.532;19.084;2023-12-04T15:52:41;101017.72;;;-0.63;100.00
62122;BME280;48108;47.532;19.084;2023-12-04T15:55:46;101023.28;;;-0.54;100.00
62122;BME280;48108;47.532;19.084;2023-12-04T15:58:49;101026.03;;;-0.55;100.00
62122;BME280;48108;47.532;19.084;2023-12-04T16:01:52;101012.53;;;-0.51;100.00
62122;BME280;48108;47.532;19.084;2023-12-04T16:04:57;101018.62;;;-0.64;100.00
62122;BME280;48108;47.532;19.084;2023-12-04T16:08:02;101018.56;;;-0.63;100.00
62122;BME280;48108;47.532;19.084;2023-12-04T16:11:06;101023.63;;;-0.74;100.00
62122;BME280;48108;47.532;19.084;2023-12-04T16:14:09;101026.63;;;-0.80;100.00
62122;BME280;48108;47.532;19.084;2023-12-04T16:17:12;101025.28;;;-0.87;100.00
62122;BME280;48108;47.532;19.084;2023-12-04T16:20:15;101017.34;;;-0.87;100.00
62122;BME280;48108;47.532;19.084;2023-12-04T16:23:19;101003.37;;;-0.89;100.00
62122;BME280;48108;47.532;19.084;2023-12-04T16:26:23;101012.50;;;-0.95;100.00
62122;BME280;48108;47.532;19.084;2023-12-04T16:29:26;101012.84;;;-1.01;100.00
62122;BME280;48108;47.532;19.084;2023-12-04T16:32:35;101016.34;;;-1.01;100.00
62122;BME280;48108;47.532;19.084;2023-12-04T16:35:40;101012.38;;;-1.08;100.00
62122;BME280;48108;47.532;19.084;2023-12-04T16:38:43;101015.25;;;-1.12;100.00
62122;BME280;48108;47.532;19.084;2023-12-04T16:41:46;101020.97;;;-1.20;100.00
62122;BME280;48108;47.532;19.084;2023-12-04T16:44:49;101012.28;;;-1.22;100.00
62122;BME280;48108;47.532;19.084;2023-12-04T16:47:52;101020.81;;;-1.33;100.00
62122;BME280;48108;47.532;19.084;2023-12-04T16:50:57;101007.94;;;-1.39;100.00
62122;BME280;48108;47.532;19.084;2023-12-04T16:54:00;101007.34;;;-1.44;100.00
62122;BME280;48108;47.532;19.084;2023-12-04T16:57:03;100998.81;;;-1.49;100.00
